KNOW

Port Angeles CGas Airport

Port Angeles, Washington, USA
METAR KNOW 150030Z AUTO 00000KT 7SM SCT050 19/14 A2986 RMK AO2 T01890136
Observed Flight Rules
Aug-15 @ 00:30 UTC (36 minutes ago) Visual Flight Rules
Visibility Clouds
7 miles
  • Scattered at 5,000' AGL
Temperatures Readings
Current 19°C / 66°F
Dewpoint 14°C / 57°F
Humidity 73%
Altimeter 29.86" Hg
Pressure 1011 hPa
Elevation 4
METAR KNOW 150030Z AUTO 00000KT 7SM SCT050 19/14 A2986 RMK AO2 T01890136
Observed Flight Rules
Aug-15 @ 00:30 UTC
(36 minutes ago)
VFR
Clouds
  • Scattered at 5,000' AGL
Temperature Dewpoint
19°C / 66°F 14°C / 57°F
Humidity Altimeter Pressure
73% 29.86" Hg 1011 hPa